createdAt,value
2018-03-21T00:01:27.654Z,23.77
2018-03-21T00:03:55.739Z,22.67
2018-03-21T00:06:23.805Z,21.97
2018-03-21T00:08:52.321Z,22.87
2018-03-21T00:11:21.203Z,23.70
2018-03-21T00:13:49.294Z,23.23
2018-03-21T00:16:18.126Z,24.45
2018-03-21T00:18:46.207Z,22.67
2018-03-21T00:21:14.266Z,24.15
2018-03-21T00:23:42.360Z,26.67
2018-03-21T00:26:10.433Z,25.17
2018-03-21T00:28:38.496Z,26.30
2018-03-21T00:31:07.344Z,24.02
2018-03-21T00:33:35.402Z,22.40
2018-03-21T00:36:03.474Z,20.80
2018-03-21T00:38:31.539Z,23.10
2018-03-21T00:40:59.955Z,24.25
2018-03-21T00:43:28.023Z,24.17
2018-03-21T00:45:56.100Z,22.77
2018-03-21T00:48:24.166Z,24.60
2018-03-21T00:50:52.262Z,23.57
2018-03-21T00:53:20.331Z,21.90
2018-03-21T00:55:48.412Z,21.87
2018-03-21T00:58:16.602Z,21.37
2018-03-21T01:00:44.676Z,23.30
2018-03-21T01:03:13.015Z,24.30
2018-03-21T01:05:41.085Z,22.25
2018-03-21T01:08:09.149Z,23.80
2018-03-21T01:10:37.990Z,23.17
2018-03-21T01:13:06.086Z,23.97
2018-03-21T01:15:34.250Z,23.80
2018-03-21T01:18:02.421Z,24.37
2018-03-21T01:20:30.494Z,24.40
2018-03-21T01:22:58.582Z,23.53
2018-03-21T01:25:26.786Z,24.87
2018-03-21T01:27:55.631Z,25.83
2018-03-21T01:30:23.702Z,24.50
2018-03-21T01:32:52.342Z,25.83
2018-03-21T01:35:21.936Z,25.13
2018-03-21T01:37:50.007Z,23.63
2018-03-21T01:40:18.097Z,25.37
2018-03-21T01:42:46.930Z,26.77
2018-03-21T01:45:15.018Z,26.30
2018-03-21T01:47:43.078Z,22.70
2018-03-21T01:50:12.030Z,26.67
2018-03-21T01:52:40.253Z,25.63
2018-03-21T01:55:09.093Z,25.33
2018-03-21T01:57:37.173Z,23.98
2018-03-21T02:00:05.346Z,26.80
2018-03-21T02:02:33.426Z,24.27
2018-03-21T02:05:01.494Z,27.55
2018-03-21T02:07:31.086Z,24.80
2018-03-21T02:10:00.322Z,25.27
2018-03-21T02:12:28.388Z,25.67
2018-03-21T02:14:56.462Z,24.92
2018-03-21T02:17:24.540Z,26.57
2018-03-21T02:19:52.615Z,23.30
2018-03-21T02:22:20.678Z,28.93
2018-03-21T02:24:48.756Z,25.20
2018-03-21T02:27:16.819Z,24.20
2018-03-21T02:29:44.927Z,25.10
2018-03-21T02:32:13.074Z,26.90
2018-03-21T02:34:41.143Z,26.23
2018-03-21T02:37:09.207Z,26.40
2018-03-21T02:39:38.053Z,26.40
2018-03-21T02:42:06.119Z,27.63
2018-03-21T02:44:34.187Z,25.80
2018-03-21T02:47:02.250Z,21.93
2018-03-21T02:49:31.277Z,24.00
2018-03-21T02:52:00.582Z,22.98
2018-03-21T02:54:28.647Z,25.20
2018-03-21T02:56:56.718Z,25.33
2018-03-21T02:59:24.792Z,25.30
2018-03-21T03:01:52.870Z,23.70
2018-03-21T03:04:20.937Z,23.13
2018-03-21T03:06:49.041Z,24.57
2018-03-21T03:09:17.113Z,22.35
2018-03-21T03:11:45.194Z,20.10
2018-03-21T03:14:13.258Z,23.15
2018-03-21T03:16:41.355Z,23.80
2018-03-21T03:19:09.558Z,21.67
2018-03-21T03:21:38.962Z,22.05
2018-03-21T03:24:07.519Z,22.83
2018-03-21T03:26:35.590Z,23.60
2018-03-21T03:29:03.675Z,21.45
2018-03-21T03:31:31.746Z,22.87
2018-03-21T03:34:01.536Z,22.04
2018-03-21T03:36:30.770Z,21.05
2018-03-21T03:38:58.845Z,22.00
2018-03-21T03:41:27.018Z,22.63
2018-03-21T03:43:55.094Z,22.90
2018-03-21T03:46:23.194Z,23.03
2018-03-21T03:48:52.481Z,21.73
2018-03-21T03:51:20.574Z,20.37
2018-03-21T03:53:49.415Z,22.30
2018-03-21T03:56:17.526Z,20.80
2018-03-21T03:58:45.715Z,18.87
2018-03-21T04:01:13.893Z,21.08
2018-03-21T04:03:41.997Z,19.57
2018-03-21T04:06:10.017Z,18.80
2018-03-21T04:08:38.086Z,21.15
2018-03-21T04:11:06.158Z,19.37
2018-03-21T04:13:34.230Z,19.37
2018-03-21T04:16:02.314Z,21.02
2018-03-21T04:18:30.371Z,19.47
2018-03-21T04:20:58.475Z,19.50
2018-03-21T04:23:26.565Z,19.63
2018-03-21T04:25:54.746Z,19.17
2018-03-21T04:28:22.818Z,19.20
2018-03-21T04:30:50.898Z,16.33
2018-03-21T04:33:18.962Z,19.12
2018-03-21T04:35:47.050Z,17.57
2018-03-21T04:38:15.122Z,17.80
2018-03-21T04:40:43.219Z,18.90
2018-03-21T04:43:11.407Z,17.75
2018-03-21T04:45:39.494Z,19.27
2018-03-21T04:48:08.331Z,20.00
2018-03-21T04:50:36.402Z,18.33
2018-03-21T04:53:04.511Z,17.03
2018-03-21T04:55:32.582Z,17.60
2018-03-21T04:58:02.801Z,16.80
2018-03-21T05:00:31.901Z,18.90
2018-03-21T05:03:01.094Z,16.97
2018-03-21T05:05:29.169Z,19.65
2018-03-21T05:07:57.874Z,15.73
2018-03-21T05:10:25.966Z,16.93
2018-03-21T05:12:54.159Z,16.90
2018-03-21T05:15:22.254Z,18.37
2018-03-21T05:17:52.209Z,16.70
2018-03-21T05:20:20.300Z,17.37
2018-03-21T05:22:48.354Z,15.80
2018-03-21T05:25:16.419Z,15.80
2018-03-21T05:27:44.603Z,13.60
2018-03-21T05:30:12.672Z,12.80
2018-03-21T05:32:40.790Z,12.80
2018-03-21T05:35:08.933Z,11.73
2018-03-21T05:37:37.004Z,16.20
2018-03-21T05:40:05.077Z,11.85
2018-03-21T05:42:33.169Z,11.43
2018-03-21T05:45:02.270Z,11.07
2018-03-21T05:47:31.470Z,11.25
2018-03-21T05:49:59.578Z,10.68
2018-03-21T05:52:28.674Z,11.43
2018-03-21T05:54:56.750Z,13.02
2018-03-21T05:57:24.933Z,12.30
2018-03-21T05:59:53.926Z,12.17
2018-03-21T06:02:22.005Z,12.50
2018-03-21T06:04:50.082Z,12.63
2018-03-21T06:07:18.156Z,12.70
2018-03-21T06:09:46.363Z,11.30
2018-03-21T06:12:14.410Z,10.55
2018-03-21T06:14:42.496Z,10.27
2018-03-21T06:17:10.558Z,9.77
2018-03-21T06:19:38.622Z,8.50
2018-03-21T06:22:06.706Z,10.63
2018-03-21T06:24:34.772Z,9.70
2018-03-21T06:27:02.842Z,9.77
2018-03-21T06:29:31.886Z,9.98
2018-03-21T06:32:00.044Z,9.52
2018-03-21T06:34:28.399Z,9.70
2018-03-21T06:36:56.506Z,10.23
2018-03-21T06:39:24.558Z,10.90
2018-03-21T06:41:53.204Z,10.00
2018-03-21T06:44:22.038Z,9.17
2018-03-21T06:46:50.113Z,8.47
2018-03-21T06:49:18.218Z,7.80
2018-03-21T06:51:46.309Z,7.40
2018-03-21T06:54:14.361Z,9.63
2018-03-21T06:56:42.445Z,7.93
2018-03-21T06:59:10.537Z,7.20
2018-03-21T07:01:40.144Z,9.00
2018-03-21T07:04:09.042Z,6.87
2018-03-21T07:06:38.158Z,7.60
2018-03-21T07:09:06.990Z,7.57
2018-03-21T07:11:35.063Z,7.85
2018-03-21T07:14:20.850Z,7.07
2018-03-21T07:16:48.920Z,7.40
2018-03-21T07:19:17.047Z,6.60
2018-03-21T07:21:45.890Z,7.50
2018-03-21T07:24:14.006Z,6.40
2018-03-21T07:26:42.078Z,6.50
2018-03-21T07:29:10.162Z,5.53
2018-03-21T07:31:38.234Z,6.27
2018-03-21T07:34:06.300Z,6.30
2018-03-21T07:36:34.371Z,6.50
2018-03-21T07:39:02.620Z,6.65
2018-03-21T07:41:30.633Z,5.90
2018-03-21T07:43:58.694Z,6.45
2018-03-21T07:46:26.758Z,6.10
2018-03-21T07:48:55.029Z,8.43
2018-03-21T07:51:23.319Z,8.27
2018-03-21T07:53:53.257Z,8.90
2018-03-21T07:56:21.623Z,8.23
2018-03-21T07:58:49.835Z,6.40
2018-03-21T08:01:17.891Z,5.50
2018-03-21T08:03:45.983Z,7.27
2018-03-21T08:06:14.042Z,6.03
2018-03-21T08:08:42.104Z,6.40
2018-03-21T08:11:10.189Z,7.43
2018-03-21T08:13:38.257Z,6.47
2018-03-21T08:16:06.394Z,7.07
2018-03-21T08:18:34.549Z,6.33
2018-03-21T08:21:03.542Z,7.07
2018-03-21T08:23:32.727Z,6.27
2018-03-21T08:26:00.778Z,6.60
2018-03-21T08:28:28.850Z,6.85
2018-03-21T08:30:56.906Z,6.63
2018-03-21T08:33:25.755Z,7.18
2018-03-21T08:35:53.802Z,6.90
2018-03-21T08:38:21.919Z,8.10
2018-03-21T08:40:49.977Z,7.03
2018-03-21T08:43:18.043Z,6.80
2018-03-21T08:45:46.085Z,6.95
2018-03-21T08:48:14.965Z,7.60
2018-03-21T08:50:43.475Z,7.60
2018-03-21T08:53:12.319Z,7.73
2018-03-21T08:55:40.418Z,7.23
2018-03-21T08:58:08.585Z,7.00
2018-03-21T09:00:36.662Z,8.23
2018-03-21T09:03:04.731Z,7.68
2018-03-21T09:05:34.127Z,7.25
2018-03-21T09:08:03.330Z,7.53
2018-03-21T09:10:31.417Z,6.95
2018-03-21T09:12:59.527Z,8.20
2018-03-21T09:15:27.573Z,8.70
2018-03-21T09:17:55.651Z,7.60
2018-03-21T09:20:23.697Z,8.73
2018-03-21T09:22:52.307Z,8.33
2018-03-21T09:25:20.378Z,8.13
2018-03-21T09:27:48.470Z,8.30
2018-03-21T09:30:17.015Z,8.77
2018-03-21T09:32:45.279Z,8.80
2018-03-21T09:35:14.112Z,8.20
2018-03-21T09:37:42.275Z,7.80
2018-03-21T09:40:10.348Z,8.67
2018-03-21T09:42:38.422Z,8.07
2018-03-21T09:45:06.483Z,8.60
2018-03-21T09:47:35.326Z,9.73
2018-03-21T09:50:03.907Z,10.00
2018-03-21T09:52:32.079Z,10.37
2018-03-21T09:55:00.134Z,9.65
2018-03-21T09:57:28.199Z,9.40
2018-03-21T09:59:56.256Z,10.00
2018-03-21T10:02:25.086Z,9.80
2018-03-21T10:04:53.131Z,9.07
2018-03-21T10:07:21.966Z,9.37
2018-03-21T10:09:50.026Z,10.63
2018-03-21T10:12:18.122Z,9.97
2018-03-21T10:14:46.181Z,9.07
2018-03-21T10:17:14.295Z,9.87
2018-03-21T10:19:42.375Z,10.47
2018-03-21T10:22:10.456Z,9.67
2018-03-21T10:24:38.513Z,23.80
2018-03-21T10:27:06.586Z,11.60
2018-03-21T10:29:35.001Z,9.70
2018-03-21T10:32:05.714Z,10.50
2018-03-21T10:34:35.001Z,11.10
2018-03-21T10:37:04.995Z,10.93
2018-03-21T10:39:34.194Z,11.70
2018-03-21T10:42:02.308Z,11.20
2018-03-21T10:44:30.377Z,9.60
2018-03-21T10:46:58.476Z,10.60
2018-03-21T10:49:26.581Z,11.37
2018-03-21T10:51:54.643Z,11.37
2018-03-21T10:54:22.706Z,10.97
2018-03-21T10:56:53.399Z,10.83
2018-03-21T10:59:21.482Z,10.43
2018-03-21T11:01:55.119Z,13.30
2018-03-21T11:04:23.186Z,13.50
2018-03-21T11:06:52.373Z,12.17
2018-03-21T11:09:20.488Z,10.15
2018-03-21T11:11:49.302Z,9.60
2018-03-21T11:14:18.226Z,10.68
2018-03-21T11:16:46.343Z,12.80
2018-03-21T11:19:14.447Z,11.00
2018-03-21T11:21:42.621Z,10.37
2018-03-21T11:24:11.557Z,11.17
2018-03-21T11:26:39.670Z,11.50
2018-03-21T11:29:07.910Z,11.18
2018-03-21T11:31:36.146Z,11.40
2018-03-21T11:34:04.779Z,10.58
2018-03-21T11:36:32.790Z,9.80
2018-03-21T11:39:00.947Z,9.30
2018-03-21T11:41:29.734Z,9.33
2018-03-21T11:43:57.813Z,9.30
2018-03-21T11:46:26.263Z,8.83
2018-03-21T11:48:54.359Z,10.07
2018-03-21T11:51:22.418Z,8.65
2018-03-21T11:53:52.591Z,14.77
2018-03-21T11:56:20.677Z,14.75
2018-03-21T11:58:48.845Z,10.80
2018-03-21T12:01:16.994Z,10.82
2018-03-21T12:03:45.070Z,11.07
2018-03-21T12:06:13.126Z,10.60
2018-03-21T12:08:42.007Z,10.43
2018-03-21T12:11:10.036Z,10.50
2018-03-21T12:13:38.134Z,9.13
2018-03-21T12:16:06.194Z,9.70
2018-03-21T12:18:36.734Z,10.25
2018-03-21T12:21:05.934Z,8.48
2018-03-21T12:23:35.172Z,35.57
2018-03-21T12:26:05.165Z,9.45
2018-03-21T12:28:33.231Z,9.10
2018-03-21T12:31:01.298Z,8.60
2018-03-21T12:33:29.395Z,8.10
2018-03-21T12:35:57.449Z,6.30
2018-03-21T12:38:25.511Z,6.27
2018-03-21T12:40:53.570Z,5.33
2018-03-21T12:43:21.644Z,4.87
2018-03-21T12:45:50.449Z,5.10
2018-03-21T12:48:18.578Z,6.23
2018-03-21T12:50:46.630Z,8.07
2018-03-21T12:53:14.727Z,7.23
2018-03-21T12:55:42.886Z,8.33
2018-03-21T12:58:10.972Z,7.27
2018-03-21T13:00:39.037Z,11.93
2018-03-21T13:03:07.110Z,39.97
2018-03-21T13:05:37.046Z,8.93
2018-03-21T13:08:05.636Z,7.74
2018-03-21T13:10:33.742Z,8.07
2018-03-21T13:13:02.574Z,7.37
2018-03-21T13:15:30.648Z,7.90
2018-03-21T13:17:58.698Z,8.27
2018-03-21T13:20:27.538Z,8.50
2018-03-21T13:22:55.601Z,8.15
2018-03-21T13:25:23.662Z,8.40
2018-03-21T13:27:52.289Z,7.40
2018-03-21T13:30:20.354Z,8.10
2018-03-21T13:32:48.425Z,8.10
2018-03-21T13:35:16.510Z,8.98
2018-03-21T13:37:44.586Z,9.23
2018-03-21T13:40:12.774Z,9.27
2018-03-21T13:42:40.850Z,9.13
2018-03-21T13:45:08.916Z,9.93
2018-03-21T13:47:36.998Z,10.07
2018-03-21T13:50:06.621Z,10.10
2018-03-21T13:52:35.817Z,10.10
2018-03-21T13:55:03.874Z,8.70
2018-03-21T13:57:31.949Z,9.27
2018-03-21T14:00:00.022Z,8.35
2018-03-21T14:02:28.086Z,8.50
2018-03-21T14:04:56.202Z,7.77
2018-03-21T14:07:24.249Z,9.00
2018-03-21T14:09:52.329Z,9.25
2018-03-21T14:12:21.299Z,7.97
2018-03-21T14:14:49.350Z,7.83
2018-03-21T14:17:18.171Z,8.68
2018-03-21T14:19:46.239Z,8.67
2018-03-21T14:22:15.072Z,7.80
2018-03-21T14:24:43.127Z,8.20
2018-03-21T14:27:11.226Z,9.60
2018-03-21T14:29:39.290Z,8.87
2018-03-21T14:32:07.351Z,8.63
2018-03-21T14:34:36.182Z,8.85
2018-03-21T14:37:04.365Z,7.95
2018-03-21T14:39:32.432Z,8.00
2018-03-21T14:42:00.516Z,8.10
2018-03-21T14:44:28.734Z,7.90
2018-03-21T14:46:57.797Z,7.23
2018-03-21T14:49:25.884Z,8.33
2018-03-21T14:51:53.955Z,8.87
2018-03-21T14:54:22.828Z,9.63
2018-03-21T14:56:50.886Z,22.03
2018-03-21T14:59:18.958Z,8.10
2018-03-21T15:01:47.090Z,7.78
2018-03-21T15:04:15.173Z,8.98
2018-03-21T15:06:43.996Z,8.77
2018-03-21T15:09:13.342Z,8.50
2018-03-21T15:11:41.420Z,6.80
2018-03-21T15:14:09.492Z,7.28
2018-03-21T15:16:37.554Z,7.33
2018-03-21T15:19:07.264Z,7.02
2018-03-21T15:21:36.456Z,7.23
2018-03-21T15:24:04.557Z,7.82
2018-03-21T15:26:32.653Z,7.82
2018-03-21T15:29:00.751Z,7.78
2018-03-21T15:31:29.528Z,7.90
2018-03-21T15:33:57.590Z,8.60
2018-03-21T15:36:25.654Z,7.57
2018-03-21T15:38:53.708Z,7.33
2018-03-21T15:41:22.274Z,6.80
2018-03-21T15:43:52.206Z,7.20
2018-03-21T15:46:20.270Z,7.30
2018-03-21T15:48:48.317Z,7.17
2018-03-21T15:51:17.450Z,14.43
2018-03-21T15:53:45.531Z,7.00
2018-03-21T15:56:13.595Z,7.50
2018-03-21T15:58:42.480Z,7.50
2018-03-21T16:01:11.326Z,7.70
2018-03-21T16:03:39.377Z,7.67
2018-03-21T16:06:07.471Z,7.67
2018-03-21T16:08:37.402Z,7.10
2018-03-21T16:11:05.508Z,7.53
2018-03-21T16:13:33.673Z,8.20
2018-03-21T16:16:01.741Z,7.90
2018-03-21T16:18:29.804Z,6.22
2018-03-21T16:20:57.963Z,7.93
2018-03-21T16:23:26.000Z,8.13
2018-03-21T16:25:54.392Z,7.30
2018-03-21T16:28:23.335Z,7.20
2018-03-21T16:30:52.394Z,6.62
2018-03-21T16:33:21.210Z,7.53
2018-03-21T16:35:49.280Z,7.05
2018-03-21T16:38:17.456Z,7.37
2018-03-21T16:40:45.654Z,8.17
2018-03-21T16:43:13.714Z,7.53
2018-03-21T16:45:41.818Z,6.20
2018-03-21T16:48:10.178Z,6.97
2018-03-21T16:50:38.270Z,7.70
2018-03-21T16:53:07.182Z,7.32
2018-03-21T16:55:35.519Z,7.90
2018-03-21T16:58:04.567Z,6.80
2018-03-21T17:00:32.775Z,6.77
2018-03-21T17:03:00.930Z,7.53
2018-03-21T17:05:29.100Z,7.27
2018-03-21T17:07:57.174Z,7.85
2018-03-21T17:10:25.335Z,6.47
2018-03-21T17:12:53.593Z,7.50
2018-03-21T17:15:21.711Z,6.40
2018-03-21T17:17:49.802Z,6.50
2018-03-21T17:20:17.886Z,6.77
2018-03-21T17:22:46.790Z,6.90
2018-03-21T17:25:14.868Z,7.20
2018-03-21T17:27:42.918Z,6.13
2018-03-21T17:30:11.124Z,6.23
2018-03-21T17:32:39.206Z,6.60
2018-03-21T17:35:08.571Z,6.50
2018-03-21T17:37:37.618Z,7.45
2018-03-21T17:40:07.780Z,7.35
2018-03-21T17:42:35.812Z,6.20
2018-03-21T17:45:05.755Z,6.45
2018-03-21T17:47:33.834Z,7.03
2018-03-21T17:50:02.097Z,7.30
2018-03-21T17:52:30.922Z,6.20
2018-03-21T17:54:58.982Z,6.10
2018-03-21T17:57:32.078Z,6.73
2018-03-21T18:00:00.196Z,7.28
2018-03-21T18:02:28.261Z,8.00
2018-03-21T18:04:56.389Z,7.57
2018-03-21T18:07:25.402Z,7.40
2018-03-21T18:09:53.541Z,6.40
2018-03-21T18:12:23.164Z,7.70
2018-03-21T18:14:52.254Z,6.90
2018-03-21T18:17:20.522Z,6.93
2018-03-21T18:19:49.357Z,6.73
2018-03-21T18:22:17.426Z,7.35
2018-03-21T18:24:46.918Z,7.17
2018-03-21T18:27:16.070Z,6.87
2018-03-21T18:29:44.262Z,6.40
2018-03-21T18:32:12.329Z,7.20
2018-03-21T18:34:40.423Z,5.20
2018-03-21T18:37:09.016Z,6.27
2018-03-21T18:39:38.815Z,6.60
2018-03-21T18:42:08.022Z,5.57
2018-03-21T18:44:36.065Z,5.63
2018-03-21T18:47:04.130Z,6.05
2018-03-21T18:49:32.190Z,5.40
2018-03-21T18:52:01.175Z,5.50
2018-03-21T18:54:29.272Z,5.80
2018-03-21T18:56:58.373Z,18.27
2018-03-21T18:59:26.412Z,8.15
2018-03-21T19:01:54.487Z,6.20
2018-03-21T19:04:22.692Z,5.73
2018-03-21T19:06:52.653Z,6.70
2018-03-21T19:09:20.743Z,7.05
2018-03-21T19:11:48.873Z,5.93
2018-03-21T19:14:17.150Z,6.20
2018-03-21T19:16:46.002Z,8.13
2018-03-21T19:19:14.079Z,7.50
2018-03-21T19:21:42.221Z,7.70
2018-03-21T19:24:10.289Z,6.57
2018-03-21T19:26:38.514Z,9.03
2018-03-21T19:29:06.658Z,8.33
2018-03-21T19:31:34.914Z,7.63
2018-03-21T19:34:03.849Z,9.38
2018-03-21T19:36:31.914Z,10.00
2018-03-21T19:39:00.017Z,9.47
2018-03-21T19:41:28.209Z,9.80
2018-03-21T19:43:56.369Z,9.73
2018-03-21T19:46:24.774Z,10.38
2018-03-21T19:48:52.852Z,10.73
2018-03-21T19:51:20.900Z,10.40
2018-03-21T19:53:49.070Z,12.43
2018-03-21T19:56:17.166Z,10.13
2018-03-21T19:58:45.218Z,10.97
2018-03-21T20:01:13.286Z,9.35
2018-03-21T20:03:41.390Z,11.40
2018-03-21T20:06:09.585Z,10.43
2018-03-21T20:08:38.727Z,10.10
2018-03-21T20:11:06.929Z,11.20
2018-03-21T20:13:34.961Z,10.10
2018-03-21T20:16:03.810Z,12.05
2018-03-21T20:18:31.965Z,11.80
2018-03-21T20:21:00.027Z,9.75
2018-03-21T20:23:28.087Z,10.63
2018-03-21T20:25:57.562Z,11.40
2018-03-21T20:28:25.636Z,10.55
2018-03-21T20:30:53.694Z,11.53
2018-03-21T20:33:21.766Z,11.65
2018-03-21T20:35:49.852Z,12.80
2018-03-21T20:38:17.946Z,11.00
2018-03-21T20:40:46.010Z,10.50
2018-03-21T20:43:14.091Z,10.63
2018-03-21T20:45:42.150Z,12.13
2018-03-21T20:48:10.235Z,10.35
2018-03-21T20:50:39.814Z,10.20
2018-03-21T20:53:09.090Z,11.00
2018-03-21T20:55:37.646Z,10.30
2018-03-21T20:58:05.876Z,13.30
2018-03-21T21:00:34.707Z,12.20
2018-03-21T21:03:02.785Z,11.30
2018-03-21T21:05:30.846Z,12.10
2018-03-21T21:07:58.930Z,11.87
2018-03-21T21:10:27.026Z,11.02
2018-03-21T21:12:55.218Z,11.87
2018-03-21T21:15:23.395Z,11.50
2018-03-21T21:17:52.418Z,11.85
2018-03-21T21:20:21.261Z,11.65
2018-03-21T21:22:49.338Z,11.77
2018-03-21T21:25:17.395Z,10.30
2018-03-21T21:27:45.482Z,11.53
2018-03-21T21:30:13.692Z,10.87
2018-03-21T21:32:41.876Z,10.97
2018-03-21T21:35:09.942Z,11.75
2018-03-21T21:37:38.017Z,11.30
2018-03-21T21:40:06.101Z,10.18
2018-03-21T21:42:34.182Z,11.87
2018-03-21T21:45:02.273Z,10.70
2018-03-21T21:47:30.331Z,10.87
2018-03-21T21:49:58.459Z,12.07
2018-03-21T21:52:26.527Z,11.48
2018-03-21T21:54:54.596Z,11.95
2018-03-21T21:57:23.527Z,11.80
2018-03-21T21:59:52.358Z,11.35
2018-03-21T22:02:20.591Z,10.82
2018-03-21T22:04:48.815Z,12.00
2018-03-21T22:07:16.979Z,11.93
2018-03-21T22:09:45.935Z,13.03
2018-03-21T22:12:19.468Z,15.13
2018-03-21T22:14:47.581Z,11.50
2018-03-21T22:17:15.633Z,11.52
2018-03-21T22:19:43.781Z,11.53
2018-03-21T22:22:12.041Z,13.33
2018-03-21T22:24:40.094Z,12.57
2018-03-21T22:27:10.058Z,11.68
2018-03-21T22:29:38.228Z,11.70
2018-03-21T22:32:06.300Z,13.17
2018-03-21T22:34:34.410Z,12.73
2018-03-21T22:37:02.494Z,11.90
2018-03-21T22:39:30.569Z,12.30
2018-03-21T22:41:58.883Z,12.37
2018-03-21T22:44:27.758Z,12.18
2018-03-21T22:46:56.049Z,14.00
2018-03-21T22:49:24.166Z,12.50
2018-03-21T22:51:52.318Z,13.00
2018-03-21T22:54:20.688Z,11.73
2018-03-21T22:56:48.702Z,12.37
2018-03-21T22:59:16.781Z,12.10
2018-03-21T23:01:44.846Z,11.95
2018-03-21T23:04:12.931Z,13.57
2018-03-21T23:06:41.057Z,12.50
2018-03-21T23:09:10.262Z,11.57
2018-03-21T23:11:40.966Z,10.85
2018-03-21T23:14:09.042Z,12.60
2018-03-21T23:16:37.982Z,12.50
2018-03-21T23:19:06.083Z,11.90
2018-03-21T23:21:34.642Z,11.67
2018-03-21T23:24:02.718Z,11.23
2018-03-21T23:26:30.874Z,12.63
2018-03-21T23:28:59.059Z,12.50
2018-03-21T23:31:27.231Z,11.77
2018-03-21T23:33:55.294Z,13.80
2018-03-21T23:36:23.380Z,13.93
2018-03-21T23:38:52.975Z,13.04
2018-03-21T23:41:21.047Z,12.47
2018-03-21T23:43:49.118Z,12.33
2018-03-21T23:46:17.223Z,13.80
2018-03-21T23:48:45.300Z,13.07
2018-03-21T23:51:13.383Z,13.17
2018-03-21T23:53:41.457Z,13.57
2018-03-21T23:56:10.768Z,11.17
2018-03-21T23:58:38.843Z,13.40
